Pagina principale
METAR-TAF:

METAR-TAF

Aeroporti :

Aeroporto Internazionale del Kuwait

Madinat al-Kuwait, Kuwait

latitudine: 29-13N, longitudine: 047-59E, altezza: 55 m

Osservazione

Il bollettino è stato emesso 46 minuti fa, alle 04:00 UTC
Vento 4 kt da ovest
Temperature 9°C
Umidità 81%
Pressione 1019 hPa
Visibilità: 3500 m
foschia

METAR: OKBK 290400Z 27004KT 3500 BR NSC 09/06 Q1019 NOSIG

Ora: 07:46 (04:46 UTC)

Previsione

Il bollettino è stato emesso 6 ore e 1 minuti fa, alle 22:45 UTC
Previsione valida dal 29 alle 00 UTC al 30 alle 06 UTC
Vento 10 kt da sud/sud-est con raffiche fino a 20 kt
Visibilità: 7000 m
Poco nuvoloso ad un'altezza di 4000 ft
Nuvoloso ad un'altezza di 8000 ft
Temporaneamente
dal 29 alle 00 UTC al 29 alle 04 UTC
Vento 3 kt da direzioni variabili
Visibilità: 3000 m
foschia

TAF: OKBK 282245Z 2900/3006 16010G20KT 7000 FEW040 BKN080 TEMPO 2900/2904 VRB03KT 3000 BR

Osservazioni e previsioni meteorologiche di più di 4000 aeroporti (messaggi METAR e TAF).

Le stazioni disponibili sono rappresentate dai dischi gialli e rossi sulla carta.

Puntare il mouse per vedere il nome della stazione.

Clicca sopra per visualizzare le osservazioni e previsioni meteorologiche.

Per cambiare la mappa : fare clic sui pulsanti verdi con una croce nera per ingrandire, il pulsante verde con un trattino per diminuire, o sulla freccia verde per le mappe adiacenti.


METAR-TAF: